sensor_id;sensor_type;location;lat;lon;timestamp;pressure;altitude;pressure_sealevel;temperature;humidity
37298;BME280;30517;51.932;4.278;2023-04-27T00:00:42;102162.41;;;11.65;53.82
37298;BME280;30517;51.932;4.278;2023-04-27T00:03:24;102163.28;;;11.64;53.92
37298;BME280;30517;51.932;4.278;2023-04-27T00:06:05;102167.63;;;11.59;53.70
37298;BME280;30517;51.932;4.278;2023-04-27T00:08:46;102151.56;;;11.47;54.30
37298;BME280;30517;51.932;4.278;2023-04-27T00:11:26;102169.31;;;11.54;54.06
37298;BME280;30517;51.932;4.278;2023-04-27T00:14:07;102168.38;;;11.52;53.86
37298;BME280;30517;51.932;4.278;2023-04-27T00:16:48;102126.59;;;11.25;54.05
37298;BME280;30517;51.932;4.278;2023-04-27T00:19:29;102167.41;;;11.45;53.89
37298;BME280;30517;51.932;4.278;2023-04-27T00:22:10;102037.63;;;10.65;54.07
37298;BME280;30517;51.932;4.278;2023-04-27T00:24:51;102160.16;;;11.32;54.09
37298;BME280;30517;51.932;4.278;2023-04-27T00:27:32;102159.19;;;11.27;54.17
37298;BME280;30517;51.932;4.278;2023-04-27T00:30:13;102168.09;;;11.34;53.63
37298;BME280;30517;51.932;4.278;2023-04-27T00:32:53;102165.38;;;11.27;54.07
37298;BME280;30517;51.932;4.278;2023-04-27T00:35:34;102162.59;;;11.18;54.19
37298;BME280;30517;51.932;4.278;2023-04-27T00:38:15;102164.44;;;11.25;54.44
37298;BME280;30517;51.932;4.278;2023-04-27T00:41:03;102159.16;;;11.24;53.96
37298;BME280;30517;51.932;4.278;2023-04-27T00:43:45;102163.47;;;11.19;53.98
37298;BME280;30517;51.932;4.278;2023-04-27T00:46:26;102153.75;;;11.16;54.06
37298;BME280;30517;51.932;4.278;2023-04-27T00:49:07;102135.00;;;10.99;54.03
37298;BME280;30517;51.932;4.278;2023-04-27T00:51:51;102161.59;;;11.12;54.14
37298;BME280;30517;51.932;4.278;2023-04-27T00:54:32;102158.03;;;11.10;54.14
37298;BME280;30517;51.932;4.278;2023-04-27T00:57:13;102153.47;;;11.01;54.16
37298;BME280;30517;51.932;4.278;2023-04-27T00:59:53;102143.81;;;11.01;54.26
37298;BME280;30517;51.932;4.278;2023-04-27T01:02:34;102136.56;;;10.90;54.10
37298;BME280;30517;51.932;4.278;2023-04-27T01:05:16;102149.03;;;10.98;54.42
37298;BME280;30517;51.932;4.278;2023-04-27T01:07:57;102151.63;;;10.95;54.15
37298;BME280;30517;51.932;4.278;2023-04-27T01:10:38;102123.31;;;10.87;53.97
37298;BME280;30517;51.932;4.278;2023-04-27T01:13:18;102139.25;;;10.91;53.94
37298;BME280;30517;51.932;4.278;2023-04-27T01:15:59;102132.16;;;10.89;54.19
37298;BME280;30517;51.932;4.278;2023-04-27T01:18:40;102135.66;;;10.88;54.49
37298;BME280;30517;51.932;4.278;2023-04-27T01:21:21;102081.47;;;10.56;54.53
37298;BME280;30517;51.932;4.278;2023-04-27T01:24:04;102116.94;;;10.74;54.24
37298;BME280;30517;51.932;4.278;2023-04-27T01:26:46;102132.88;;;10.80;54.27
37298;BME280;30517;51.932;4.278;2023-04-27T01:29:27;102128.31;;;10.70;53.91
37298;BME280;30517;51.932;4.278;2023-04-27T01:32:08;102126.66;;;10.75;54.47
37298;BME280;30517;51.932;4.278;2023-04-27T01:34:48;102093.69;;;10.53;54.16
37298;BME280;30517;51.932;4.278;2023-04-27T01:37:30;102112.44;;;10.68;54.26
37298;BME280;30517;51.932;4.278;2023-04-27T01:40:11;102086.59;;;10.49;54.13
37298;BME280;30517;51.932;4.278;2023-04-27T01:42:52;102112.34;;;10.62;54.19
37298;BME280;30517;51.932;4.278;2023-04-27T01:45:32;102094.53;;;10.50;54.41
37298;BME280;30517;51.932;4.278;2023-04-27T01:48:13;102076.75;;;10.38;53.92
37298;BME280;30517;51.932;4.278;2023-04-27T01:50:54;102114.03;;;10.58;53.55
37298;BME280;30517;51.932;4.278;2023-04-27T01:53:35;102101.50;;;10.47;54.12
37298;BME280;30517;51.932;4.278;2023-04-27T01:56:16;102070.47;;;10.32;54.48
37298;BME280;30517;51.932;4.278;2023-04-27T01:58:56;102103.25;;;10.46;54.68
37298;BME280;30517;51.932;4.278;2023-04-27T02:01:37;102101.41;;;10.42;54.30
37298;BME280;30517;51.932;4.278;2023-04-27T02:04:18;102104.03;;;10.40;54.31
37298;BME280;30517;51.932;4.278;2023-04-27T02:06:59;102103.91;;;10.33;54.72
37298;BME280;30517;51.932;4.278;2023-04-27T02:09:40;102094.81;;;10.18;54.80
37298;BME280;30517;51.932;4.278;2023-04-27T02:12:20;102091.16;;;10.12;55.24
37298;BME280;30517;51.932;4.278;2023-04-27T02:15:01;102094.66;;;10.12;55.17
37298;BME280;30517;51.932;4.278;2023-04-27T02:17:42;102088.34;;;10.04;55.33
37298;BME280;30517;51.932;4.278;2023-04-27T02:20:24;102038.56;;;9.72;55.20
37298;BME280;30517;51.932;4.278;2023-04-27T02:23:05;102034.06;;;9.68;55.84
37298;BME280;30517;51.932;4.278;2023-04-27T02:25:46;102076.56;;;9.85;55.98
37298;BME280;30517;51.932;4.278;2023-04-27T02:28:27;102088.97;;;9.91;55.69
37298;BME280;30517;51.932;4.278;2023-04-27T02:31:08;102086.22;;;9.85;56.36
37298;BME280;30517;51.932;4.278;2023-04-27T02:33:49;102080.84;;;9.80;56.19
37298;BME280;30517;51.932;4.278;2023-04-27T02:36:30;102084.34;;;9.78;55.74
37298;BME280;30517;51.932;4.278;2023-04-27T02:39:11;102085.28;;;9.83;56.00
37298;BME280;30517;51.932;4.278;2023-04-27T02:41:52;102071.66;;;9.61;55.85
37298;BME280;30517;51.932;4.278;2023-04-27T02:44:33;102070.88;;;9.65;55.66
37298;BME280;30517;51.932;4.278;2023-04-27T02:47:14;102050.44;;;9.53;56.22
37298;BME280;30517;51.932;4.278;2023-04-27T02:49:55;102074.34;;;9.63;56.36
37298;BME280;30517;51.932;4.278;2023-04-27T02:52:35;102068.03;;;9.55;56.14
37298;BME280;30517;51.932;4.278;2023-04-27T02:55:16;102084.72;;;9.55;56.32
37298;BME280;30517;51.932;4.278;2023-04-27T02:57:57;102109.47;;;9.63;56.58
37298;BME280;30517;51.932;4.278;2023-04-27T03:00:38;102108.63;;;9.64;56.13
37298;BME280;30517;51.932;4.278;2023-04-27T03:03:21;102087.25;;;9.50;55.98
37298;BME280;30517;51.932;4.278;2023-04-27T03:06:02;101997.44;;;8.99;56.61
37298;BME280;30517;51.932;4.278;2023-04-27T03:08:42;102100.50;;;9.55;56.62
37298;BME280;30517;51.932;4.278;2023-04-27T03:11:23;102094.25;;;9.50;56.13
37298;BME280;30517;51.932;4.278;2023-04-27T03:14:04;102097.69;;;9.46;56.13
37298;BME280;30517;51.932;4.278;2023-04-27T03:16:45;102118.88;;;9.52;56.19
37298;BME280;30517;51.932;4.278;2023-04-27T03:19:26;102109.97;;;9.45;56.43
37298;BME280;30517;51.932;4.278;2023-04-27T03:22:07;102105.47;;;9.40;56.49
37298;BME280;30517;51.932;4.278;2023-04-27T03:24:47;102121.31;;;9.43;56.50
37298;BME280;30517;51.932;4.278;2023-04-27T03:27:28;102114.25;;;9.40;56.51
37298;BME280;30517;51.932;4.278;2023-04-27T03:30:10;102108.00;;;9.37;56.38
37298;BME280;30517;51.932;4.278;2023-04-27T03:32:51;102101.66;;;9.28;56.61
37298;BME280;30517;51.932;4.278;2023-04-27T03:35:32;102092.75;;;9.23;56.69
37298;BME280;30517;51.932;4.278;2023-04-27T03:38:12;102098.13;;;9.26;56.42
37298;BME280;30517;51.932;4.278;2023-04-27T03:40:53;102102.47;;;9.24;56.27
37298;BME280;30517;51.932;4.278;2023-04-27T03:43:34;102114.06;;;9.33;56.02
37298;BME280;30517;51.932;4.278;2023-04-27T03:46:15;102114.06;;;9.33;55.95
37298;BME280;30517;51.932;4.278;2023-04-27T03:48:56;102057.97;;;8.99;56.04
37298;BME280;30517;51.932;4.278;2023-04-27T03:51:36;102107.66;;;9.21;56.08
37298;BME280;30517;51.932;4.278;2023-04-27T03:54:21;102120.06;;;9.27;55.92
37298;BME280;30517;51.932;4.278;2023-04-27T03:57:02;102099.53;;;9.12;56.55
37298;BME280;30517;51.932;4.278;2023-04-27T03:59:43;102113.50;;;9.08;56.56
37298;BME280;30517;51.932;4.278;2023-04-27T04:02:24;102103.66;;;9.01;56.08
37298;BME280;30517;51.932;4.278;2023-04-27T04:05:05;102129.56;;;9.20;56.48
37298;BME280;30517;51.932;4.278;2023-04-27T04:07:46;102127.66;;;9.15;56.04
37298;BME280;30517;51.932;4.278;2023-04-27T04:10:27;102129.34;;;9.11;56.37
37298;BME280;30517;51.932;4.278;2023-04-27T04:13:08;102116.94;;;9.05;56.37
37298;BME280;30517;51.932;4.278;2023-04-27T04:15:48;102137.19;;;9.09;55.97
37298;BME280;30517;51.932;4.278;2023-04-27T04:18:29;102132.78;;;9.08;55.91
37298;BME280;30517;51.932;4.278;2023-04-27T04:21:10;102137.19;;;9.08;55.98
37298;BME280;30517;51.932;4.278;2023-04-27T04:23:51;102132.75;;;9.07;56.11
37298;BME280;30517;51.932;4.278;2023-04-27T04:26:32;102139.75;;;9.05;56.57
37298;BME280;30517;51.932;4.278;2023-04-27T04:29:13;102139.75;;;9.05;56.06
37298;BME280;30517;51.932;4.278;2023-04-27T04:31:57;102150.25;;;9.05;56.00
37298;BME280;30517;51.932;4.278;2023-04-27T04:34:38;102095.97;;;8.74;56.36
37298;BME280;30517;51.932;4.278;2023-04-27T04:37:18;102146.63;;;9.00;56.09
37298;BME280;30517;51.932;4.278;2023-04-27T04:39:59;102138.66;;;8.97;56.01
37298;BME280;30517;51.932;4.278;2023-04-27T04:42:40;102150.09;;;8.99;56.11
37298;BME280;30517;51.932;4.278;2023-04-27T04:45:21;102153.63;;;8.99;55.88
37298;BME280;30517;51.932;4.278;2023-04-27T04:48:02;102150.91;;;8.96;56.33
37298;BME280;30517;51.932;4.278;2023-04-27T04:50:43;102151.72;;;8.94;55.88
37298;BME280;30517;51.932;4.278;2023-04-27T04:53:23;102156.91;;;8.91;56.23
37298;BME280;30517;51.932;4.278;2023-04-27T04:56:12;102151.41;;;8.81;56.39
37298;BME280;30517;51.932;4.278;2023-04-27T04:58:53;102145.19;;;8.78;56.74
37298;BME280;30517;51.932;4.278;2023-04-27T05:01:34;102159.31;;;8.83;55.86
37298;BME280;30517;51.932;4.278;2023-04-27T05:04:15;102139.72;;;8.70;56.11
37298;BME280;30517;51.932;4.278;2023-04-27T05:06:57;102161.94;;;8.81;56.08
37298;BME280;30517;51.932;4.278;2023-04-27T05:09:39;102168.94;;;8.81;56.09
37298;BME280;30517;51.932;4.278;2023-04-27T05:12:20;102162.69;;;8.77;56.42
37298;BME280;30517;51.932;4.278;2023-04-27T05:15:01;102181.22;;;8.80;56.02
37298;BME280;30517;51.932;4.278;2023-04-27T05:17:42;102168.09;;;8.82;56.60
37298;BME280;30517;51.932;4.278;2023-04-27T05:20:23;102178.59;;;8.80;56.47
37298;BME280;30517;51.932;4.278;2023-04-27T05:23:04;102142.91;;;8.58;56.21
37298;BME280;30517;51.932;4.278;2023-04-27T05:25:44;102156.25;;;8.66;56.18
37298;BME280;30517;51.932;4.278;2023-04-27T05:28:25;102175.91;;;8.79;55.96
37298;BME280;30517;51.932;4.278;2023-04-27T05:31:06;102175.03;;;8.78;56.10
37298;BME280;30517;51.932;4.278;2023-04-27T05:33:47;102152.63;;;8.61;56.14
37298;BME280;30517;51.932;4.278;2023-04-27T05:36:28;102159.75;;;8.65;55.87
37298;BME280;30517;51.932;4.278;2023-04-27T05:39:09;102177.50;;;8.72;56.41
37298;BME280;30517;51.932;4.278;2023-04-27T05:41:49;102164.13;;;8.64;56.05
37298;BME280;30517;51.932;4.278;2023-04-27T05:44:30;102157.84;;;8.59;56.39
37298;BME280;30517;51.932;4.278;2023-04-27T05:47:11;102163.78;;;8.52;56.40
37298;BME280;30517;51.932;4.278;2023-04-27T05:49:54;102138.84;;;8.38;56.41
37298;BME280;30517;51.932;4.278;2023-04-27T05:52:35;102175.28;;;8.56;56.40
37298;BME280;30517;51.932;4.278;2023-04-27T05:55:18;102185.97;;;8.62;56.49
37298;BME280;30517;51.932;4.278;2023-04-27T05:58:00;102187.75;;;8.63;56.53
37298;BME280;30517;51.932;4.278;2023-04-27T06:00:41;102175.28;;;8.56;55.93
37298;BME280;30517;51.932;4.278;2023-04-27T06:03:22;102177.81;;;8.53;56.25
37298;BME280;30517;51.932;4.278;2023-04-27T06:06:03;102168.09;;;8.49;56.14
37298;BME280;30517;51.932;4.278;2023-04-27T06:08:44;102161.50;;;8.34;56.38
37298;BME280;30517;51.932;4.278;2023-04-27T06:11:25;102163.25;;;8.34;56.61
37298;BME280;30517;51.932;4.278;2023-04-27T06:14:06;102172.41;;;8.47;56.04
37298;BME280;30517;51.932;4.278;2023-04-27T06:24:01;102180.25;;;8.45;56.91
37298;BME280;30517;51.932;4.278;2023-04-27T06:26:41;102172.94;;;8.35;56.71
37298;BME280;30517;51.932;4.278;2023-04-27T06:29:22;102172.25;;;8.42;56.80
37298;BME280;30517;51.932;4.278;2023-04-27T06:32:03;102174.09;;;8.45;57.04
37298;BME280;30517;51.932;4.278;2023-04-27T06:34:46;102162.56;;;8.39;56.45
37298;BME280;30517;51.932;4.278;2023-04-27T06:37:27;102142.94;;;8.28;56.76
37298;BME280;30517;51.932;4.278;2023-04-27T06:40:08;102150.06;;;8.32;56.57
37298;BME280;30517;51.932;4.278;2023-04-27T06:42:49;102149.34;;;8.38;56.81
37298;BME280;30517;51.932;4.278;2023-04-27T06:45:29;102166.19;;;8.45;56.86
37298;BME280;30517;51.932;4.278;2023-04-27T06:48:10;102166.13;;;8.41;57.07
37298;BME280;30517;51.932;4.278;2023-04-27T06:50:51;102170.50;;;8.41;57.05
37298;BME280;30517;51.932;4.278;2023-04-27T06:53:32;102140.88;;;8.18;57.04
37298;BME280;30517;51.932;4.278;2023-04-27T06:56:13;102131.19;;;8.15;56.82
37298;BME280;30517;51.932;4.278;2023-04-27T06:58:54;102076.31;;;7.94;57.21
37298;BME280;30517;51.932;4.278;2023-04-27T07:01:35;102134.09;;;8.25;56.99
37298;BME280;30517;51.932;4.278;2023-04-27T07:04:16;102146.59;;;8.33;56.70
37298;BME280;30517;51.932;4.278;2023-04-27T07:06:57;102129.50;;;8.17;57.27
37298;BME280;30517;51.932;4.278;2023-04-27T07:09:38;102167.09;;;8.45;56.83
37298;BME280;30517;51.932;4.278;2023-04-27T07:12:19;102154.66;;;8.39;56.31
37298;BME280;30517;51.932;4.278;2023-04-27T07:15:00;102168.75;;;8.41;56.39
37298;BME280;30517;51.932;4.278;2023-04-27T07:17:43;102168.75;;;8.41;56.64
37298;BME280;30517;51.932;4.278;2023-04-27T07:20:24;102163.47;;;8.40;56.74
37298;BME280;30517;51.932;4.278;2023-04-27T07:23:05;102138.53;;;8.27;57.11
37298;BME280;30517;51.932;4.278;2023-04-27T07:25:47;102171.47;;;8.45;56.91
37298;BME280;30517;51.932;4.278;2023-04-27T07:28:28;102172.41;;;8.47;56.94
37298;BME280;30517;51.932;4.278;2023-04-27T07:31:09;102140.53;;;8.36;56.90
37298;BME280;30517;51.932;4.278;2023-04-27T07:33:49;102153.88;;;8.42;56.91
37298;BME280;30517;51.932;4.278;2023-04-27T07:36:30;102130.81;;;8.33;56.74
37298;BME280;30517;51.932;4.278;2023-04-27T07:39:15;102119.25;;;8.27;56.59
37298;BME280;30517;51.932;4.278;2023-04-27T07:41:55;102093.41;;;8.12;56.88
37298;BME280;30517;51.932;4.278;2023-04-27T07:44:39;102169.34;;;8.63;56.38
37298;BME280;30517;51.932;4.278;2023-04-27T07:47:21;102165.84;;;8.64;56.43
37298;BME280;30517;51.932;4.278;2023-04-27T07:50:03;102149.69;;;8.50;56.70
37298;BME280;30517;51.932;4.278;2023-04-27T07:52:45;102088.50;;;8.24;56.02
37298;BME280;30517;51.932;4.278;2023-04-27T08:02:40;102152.88;;;8.70;56.20
37298;BME280;30517;51.932;4.278;2023-04-27T08:05:21;102159.91;;;8.71;56.69
37298;BME280;30517;51.932;4.278;2023-04-27T08:08:02;102121.84;;;8.57;55.96
37298;BME280;30517;51.932;4.278;2023-04-27T08:10:43;102153.91;;;8.75;56.74
37298;BME280;30517;51.932;4.278;2023-04-27T08:13:24;102141.34;;;8.65;56.23
37298;BME280;30517;51.932;4.278;2023-04-27T08:16:05;102163.56;;;8.76;56.92
37298;BME280;30517;51.932;4.278;2023-04-27T08:18:47;102138.84;;;8.70;56.63
37298;BME280;30517;51.932;4.278;2023-04-27T08:21:28;102157.44;;;8.77;56.78
37298;BME280;30517;51.932;4.278;2023-04-27T08:24:09;102101.72;;;8.27;56.37
37298;BME280;30517;51.932;4.278;2023-04-27T08:26:50;102148.81;;;8.83;56.38
37298;BME280;30517;51.932;4.278;2023-04-27T08:29:31;102123.94;;;8.70;56.03
37298;BME280;30517;51.932;4.278;2023-04-27T08:32:12;102034.94;;;8.19;56.46
37298;BME280;30517;51.932;4.278;2023-04-27T08:34:53;102071.53;;;8.43;56.79
37298;BME280;30517;51.932;4.278;2023-04-27T08:37:34;102151.63;;;8.89;56.19
37298;BME280;30517;51.932;4.278;2023-04-27T08:40:14;102150.75;;;8.90;56.20
37298;BME280;30517;51.932;4.278;2023-04-27T08:42:57;102142.91;;;8.92;56.17
37298;BME280;30517;51.932;4.278;2023-04-27T08:45:46;102127.75;;;8.83;56.72
37298;BME280;30517;51.932;4.278;2023-04-27T08:48:28;102115.66;;;8.90;56.99
37298;BME280;30517;51.932;4.278;2023-04-27T08:51:09;102120.72;;;8.80;56.76
37298;BME280;30517;51.932;4.278;2023-04-27T08:53:53;102072.88;;;8.62;56.69
37298;BME280;30517;51.932;4.278;2023-04-27T08:56:34;102082.69;;;8.69;56.98
37298;BME280;30517;51.932;4.278;2023-04-27T08:59:15;102133.53;;;9.03;57.04
37298;BME280;30517;51.932;4.278;2023-04-27T09:01:56;102033.03;;;8.47;56.85
37298;BME280;30517;51.932;4.278;2023-04-27T09:04:40;102134.63;;;9.11;56.71
37298;BME280;30517;51.932;4.278;2023-04-27T09:07:21;102132.06;;;9.14;56.30
37298;BME280;30517;51.932;4.278;2023-04-27T09:10:03;102133.09;;;9.21;56.71
37298;BME280;30517;51.932;4.278;2023-04-27T09:12:54;102043.28;;;8.71;56.57
37298;BME280;30517;51.932;4.278;2023-04-27T09:16:01;102135.81;;;9.25;56.60
37298;BME280;30517;51.932;4.278;2023-04-27T09:18:42;102138.59;;;9.31;56.26
37298;BME280;30517;51.932;4.278;2023-04-27T09:21:26;102059.59;;;8.92;56.03
37298;BME280;30517;51.932;4.278;2023-04-27T09:24:11;102151.06;;;9.39;56.16
37298;BME280;30517;51.932;4.278;2023-04-27T09:26:52;102138.00;;;9.43;56.03
37298;BME280;30517;51.932;4.278;2023-04-27T09:29:36;102140.78;;;9.49;55.99
37298;BME280;30517;51.932;4.278;2023-04-27T09:32:18;102133.88;;;9.55;55.96
37298;BME280;30517;51.932;4.278;2023-04-27T09:35:02;102114.31;;;9.45;56.36
37298;BME280;30517;51.932;4.278;2023-04-27T09:37:44;102069.94;;;9.22;56.17
37298;BME280;30517;51.932;4.278;2023-04-27T09:40:28;102114.31;;;9.45;55.95
37298;BME280;30517;51.932;4.278;2023-04-27T09:43:10;102133.34;;;9.69;55.88
37298;BME280;30517;51.932;4.278;2023-04-27T09:45:53;102104.03;;;9.56;55.52
37298;BME280;30517;51.932;4.278;2023-04-27T09:48:37;101932.75;;;8.69;55.43
37298;BME280;30517;51.932;4.278;2023-04-27T09:51:18;102145.19;;;9.90;55.25
37298;BME280;30517;51.932;4.278;2023-04-27T09:54:00;102059.19;;;9.51;55.20
37298;BME280;30517;51.932;4.278;2023-04-27T09:57:05;102109.00;;;9.81;55.61
37298;BME280;30517;51.932;4.278;2023-04-27T10:00:00;102129.63;;;10.02;55.33
37298;BME280;30517;51.932;4.278;2023-04-27T10:03:10;102140.25;;;10.05;55.44
37298;BME280;30517;51.932;4.278;2023-04-27T10:06:07;102124.53;;;10.11;55.10
37298;BME280;30517;51.932;4.278;2023-04-27T10:09:02;102113.00;;;10.05;55.36
37298;BME280;30517;51.932;4.278;2023-04-27T10:11:46;102119.38;;;10.16;55.10
37298;BME280;30517;51.932;4.278;2023-04-27T10:14:27;102051.28;;;9.51;55.07
37298;BME280;30517;51.932;4.278;2023-04-27T10:17:09;102090.94;;;10.01;55.02
37298;BME280;30517;51.932;4.278;2023-04-27T10:19:54;102059.97;;;9.91;54.98
37298;BME280;30517;51.932;4.278;2023-04-27T10:22:40;102101.91;;;10.23;55.06
37298;BME280;30517;51.932;4.278;2023-04-27T10:25:27;102124.13;;;10.34;55.27
37298;BME280;30517;51.932;4.278;2023-04-27T10:28:14;102094.00;;;10.23;54.76
37298;BME280;30517;51.932;4.278;2023-04-27T10:30:56;102052.47;;;10.11;54.96
37298;BME280;30517;51.932;4.278;2023-04-27T10:33:41;101745.06;;;8.26;54.74
37298;BME280;30517;51.932;4.278;2023-04-27T10:36:35;102100.63;;;10.46;54.72
37298;BME280;30517;51.932;4.278;2023-04-27T10:39:19;102100.72;;;10.51;54.68
37298;BME280;30517;51.932;4.278;2023-04-27T10:42:02;102101.66;;;10.54;54.99
37298;BME280;30517;51.932;4.278;2023-04-27T10:44:53;102083.78;;;10.39;54.84
37298;BME280;30517;51.932;4.278;2023-04-27T10:47:45;102101.69;;;10.56;55.04
37298;BME280;30517;51.932;4.278;2023-04-27T10:50:26;102059.19;;;10.40;55.22
37298;BME280;30517;51.932;4.278;2023-04-27T10:53:07;102100.03;;;10.62;55.45
37298;BME280;30517;51.932;4.278;2023-04-27T10:55:54;102115.00;;;10.63;55.12
37298;BME280;30517;51.932;4.278;2023-04-27T10:58:36;102089.53;;;10.64;55.44
37298;BME280;30517;51.932;4.278;2023-04-27T11:01:24;102080.59;;;10.57;55.52
37298;BME280;30517;51.932;4.278;2023-04-27T11:04:05;102088.56;;;10.60;55.38
37298;BME280;30517;51.932;4.278;2023-04-27T11:06:46;102071.88;;;10.61;55.66
37298;BME280;30517;51.932;4.278;2023-04-27T11:09:27;102070.13;;;10.62;55.33
37298;BME280;30517;51.932;4.278;2023-04-27T11:12:11;102072.84;;;10.67;55.61
37298;BME280;30517;51.932;4.278;2023-04-27T11:14:57;102069.34;;;10.68;55.64
37298;BME280;30517;51.932;4.278;2023-04-27T11:17:38;102060.50;;;10.66;55.62
37298;BME280;30517;51.932;4.278;2023-04-27T11:20:25;102072.13;;;10.75;55.43
37298;BME280;30517;51.932;4.278;2023-04-27T11:23:07;102025.19;;;10.57;55.44
37298;BME280;30517;51.932;4.278;2023-04-27T11:25:50;102062.63;;;10.87;55.49
37298;BME280;30517;51.932;4.278;2023-04-27T11:28:31;102036.00;;;10.74;55.48
37298;BME280;30517;51.932;4.278;2023-04-27T11:31:15;101935.06;;;10.30;55.47
37298;BME280;30517;51.932;4.278;2023-04-27T11:33:56;102062.06;;;11.07;55.37
37298;BME280;30517;51.932;4.278;2023-04-27T11:36:37;102060.34;;;11.11;55.26
37298;BME280;30517;51.932;4.278;2023-04-27T11:39:18;102022.16;;;10.88;55.16
37298;BME280;30517;51.932;4.278;2023-04-27T11:42:18;102059.59;;;11.20;55.52
37298;BME280;30517;51.932;4.278;2023-04-27T11:45:04;102042.91;;;11.22;55.30
37298;BME280;30517;51.932;4.278;2023-04-27T11:47:45;102006.59;;;11.06;55.33
37298;BME280;30517;51.932;4.278;2023-04-27T11:50:26;102014.69;;;11.20;55.30
37298;BME280;30517;51.932;4.278;2023-04-27T11:53:07;102018.28;;;11.23;55.14
37298;BME280;30517;51.932;4.278;2023-04-27T11:55:51;102047.59;;;11.45;55.18
37298;BME280;30517;51.932;4.278;2023-04-27T11:58:35;102021.06;;;11.34;55.09
37298;BME280;30517;51.932;4.278;2023-04-27T12:01:17;102051.19;;;11.48;55.29
37298;BME280;30517;51.932;4.278;2023-04-27T12:03:59;102047.81;;;11.59;55.28
37298;BME280;30517;51.932;4.278;2023-04-27T12:06:41;102034.66;;;11.66;55.19
37298;BME280;30517;51.932;4.278;2023-04-27T12:09:21;101941.56;;;11.13;55.51
37298;BME280;30517;51.932;4.278;2023-04-27T12:12:02;102030.25;;;11.64;55.40
37298;BME280;30517;51.932;4.278;2023-04-27T12:14:44;102052.53;;;11.84;55.23
37298;BME280;30517;51.932;4.278;2023-04-27T12:17:25;102029.47;;;11.74;54.94
37298;BME280;30517;51.932;4.278;2023-04-27T12:20:06;102045.63;;;11.94;54.75
37298;BME280;30517;51.932;4.278;2023-04-27T12:22:47;102027.16;;;11.97;54.89
37298;BME280;30517;51.932;4.278;2023-04-27T12:25:28;101879.72;;;10.95;54.83
37298;BME280;30517;51.932;4.278;2023-04-27T12:28:09;102028.22;;;12.16;54.56
37298;BME280;30517;51.932;4.278;2023-04-27T12:30:51;101991.81;;;11.93;54.74
37298;BME280;30517;51.932;4.278;2023-04-27T12:33:32;102027.44;;;12.26;54.82
37298;BME280;30517;51.932;4.278;2023-04-27T12:36:12;102023.97;;;12.33;54.71
37298;BME280;30517;51.932;4.278;2023-04-27T12:38:58;102017.00;;;12.40;54.79
37298;BME280;30517;51.932;4.278;2023-04-27T12:41:40;101978.03;;;12.24;55.13
37298;BME280;30517;51.932;4.278;2023-04-27T12:44:21;102013.56;;;12.55;54.48
37298;BME280;30517;51.932;4.278;2023-04-27T12:47:02;101985.25;;;12.45;54.65
37298;BME280;30517;51.932;4.278;2023-04-27T12:49:43;102000.41;;;12.61;54.76
37298;BME280;30517;51.932;4.278;2023-04-27T12:52:24;101993.34;;;12.58;54.57
37298;BME280;30517;51.932;4.278;2023-04-27T12:55:05;101927.84;;;12.31;54.76
37298;BME280;30517;51.932;4.278;2023-04-27T12:57:46;102008.53;;;12.86;54.47
37298;BME280;30517;51.932;4.278;2023-04-27T13:00:27;102001.53;;;12.94;54.20
37298;BME280;30517;51.932;4.278;2023-04-27T13:03:09;101974.97;;;12.84;54.54
37298;BME280;30517;51.932;4.278;2023-04-27T13:05:50;101842.22;;;12.18;53.99
37298;BME280;30517;51.932;4.278;2023-04-27T13:08:31;101980.34;;;13.01;54.68
37298;BME280;30517;51.932;4.278;2023-04-27T13:11:12;101973.34;;;13.08;54.63
37298;BME280;30517;51.932;4.278;2023-04-27T13:13:52;101989.34;;;13.23;54.46
37298;BME280;30517;51.932;4.278;2023-04-27T13:16:34;101998.22;;;13.28;53.88
37298;BME280;30517;51.932;4.278;2023-04-27T13:19:14;101958.34;;;13.15;54.19
37298;BME280;30517;51.932;4.278;2023-04-27T13:21:55;101884.03;;;12.78;54.31
37298;BME280;30517;51.932;4.278;2023-04-27T13:24:36;101950.50;;;13.27;54.28
37298;BME280;30517;51.932;4.278;2023-04-27T13:27:17;101972.66;;;13.40;54.12
37298;BME280;30517;51.932;4.278;2023-04-27T13:29:59;101949.69;;;13.43;54.07
37298;BME280;30517;51.932;4.278;2023-04-27T13:32:40;101969.16;;;13.61;54.38
37298;BME280;30517;51.932;4.278;2023-04-27T13:35:21;101959.47;;;13.69;54.64
37298;BME280;30517;51.932;4.278;2023-04-27T13:38:02;101963.03;;;13.76;54.00
37298;BME280;30517;51.932;4.278;2023-04-27T13:40:43;101926.78;;;13.68;54.56
37298;BME280;30517;51.932;4.278;2023-04-27T13:43:24;101924.16;;;13.75;53.70
37298;BME280;30517;51.932;4.278;2023-04-27T13:46:06;101923.28;;;13.82;54.16
37298;BME280;30517;51.932;4.278;2023-04-27T13:48:47;101925.94;;;13.94;54.32
37298;BME280;30517;51.932;4.278;2023-04-27T13:51:28;101910.91;;;13.93;53.80
37298;BME280;30517;51.932;4.278;2023-04-27T13:54:09;101925.97;;;14.12;54.07
37298;BME280;30517;51.932;4.278;2023-04-27T13:56:50;101903.84;;;14.06;54.24
37298;BME280;30517;51.932;4.278;2023-04-27T13:59:30;101889.69;;;14.02;54.05
37298;BME280;30517;51.932;4.278;2023-04-27T14:02:11;101927.72;;;14.23;53.87
37298;BME280;30517;51.932;4.278;2023-04-27T14:04:52;101894.13;;;14.19;54.28
37298;BME280;30517;51.932;4.278;2023-04-27T14:07:33;101910.91;;;14.39;54.03
37298;BME280;30517;51.932;4.278;2023-04-27T14:10:14;101842.84;;;14.04;53.63
37298;BME280;30517;51.932;4.278;2023-04-27T14:12:56;101879.97;;;14.29;54.07
37298;BME280;30517;51.932;4.278;2023-04-27T14:15:37;101906.50;;;14.53;53.79
37298;BME280;30517;51.932;4.278;2023-04-27T14:18:18;101914.44;;;14.58;53.90
37298;BME280;30517;51.932;4.278;2023-04-27T14:20:58;101917.09;;;14.63;53.97
37298;BME280;30517;51.932;4.278;2023-04-27T14:23:40;101884.34;;;14.48;53.87
37298;BME280;30517;51.932;4.278;2023-04-27T14:26:20;101910.88;;;14.71;53.89